createdAt,value
2018-05-17T00:01:23.390Z,22.87
2018-05-17T00:03:29.222Z,24.03
2018-05-17T00:05:34.417Z,24.20
2018-05-17T00:07:40.561Z,25.73
2018-05-17T00:09:45.737Z,23.47
2018-05-17T00:11:51.373Z,25.60
2018-05-17T00:13:56.965Z,25.57
2018-05-17T00:16:02.903Z,26.13
2018-05-17T00:18:10.432Z,25.90
2018-05-17T00:20:18.067Z,280.83
2018-05-17T00:22:24.638Z,784.17
2018-05-17T00:24:29.829Z,432.43
2018-05-17T00:26:36.220Z,260.97
2018-05-17T00:28:41.427Z,220.97
2018-05-17T00:30:46.575Z,123.77
2018-05-17T00:32:53.032Z,134.00
2018-05-17T00:34:58.865Z,121.67
2018-05-17T00:37:04.192Z,104.90
2018-05-17T00:39:12.665Z,94.57
2018-05-17T00:41:19.168Z,97.47
2018-05-17T00:43:24.866Z,78.77
2018-05-17T00:45:30.641Z,71.57
2018-05-17T00:47:35.872Z,64.87
2018-05-17T00:49:41.041Z,64.03
2018-05-17T00:51:47.333Z,61.93
2018-05-17T00:53:52.593Z,62.70
2018-05-17T00:55:57.815Z,58.63
2018-05-17T00:58:03.720Z,48.10
2018-05-17T01:00:12.298Z,52.60
2018-05-17T01:02:19.904Z,45.67
2018-05-17T01:04:26.593Z,47.90
2018-05-17T01:06:31.961Z,38.50
2018-05-17T01:08:37.302Z,37.63
2018-05-17T01:10:42.920Z,36.83
2018-05-17T01:12:48.839Z,36.77
2018-05-17T01:14:54.622Z,34.03
2018-05-17T01:17:00.892Z,29.13
2018-05-17T01:19:07.988Z,28.23
2018-05-17T01:21:17.048Z,28.03
2018-05-17T01:23:24.534Z,28.30
2018-05-17T01:25:30.989Z,24.60
2018-05-17T01:27:36.275Z,24.20
2018-05-17T01:29:42.360Z,23.63
2018-05-17T01:31:47.531Z,23.07
2018-05-17T01:33:52.756Z,22.90
2018-05-17T01:35:58.204Z,22.77
2018-05-17T01:38:15.047Z,22.67
2018-05-17T01:40:23.127Z,21.87
2018-05-17T01:42:29.405Z,19.63
2018-05-17T01:44:34.694Z,20.07
2018-05-17T01:46:40.666Z,18.63
2018-05-17T01:48:46.215Z,18.33
2018-05-17T01:50:51.782Z,19.23
2018-05-17T01:52:57.179Z,18.33
2018-05-17T01:55:02.643Z,19.67
2018-05-17T01:57:09.029Z,17.73
2018-05-17T01:59:16.655Z,16.70
2018-05-17T02:01:22.797Z,16.40
2018-05-17T02:03:28.107Z,16.73
2018-05-17T02:05:33.480Z,16.37
2018-05-17T02:07:38.833Z,15.97
2018-05-17T02:09:44.801Z,17.47
2018-05-17T02:11:50.005Z,15.43
2018-05-17T02:13:55.623Z,14.40
2018-05-17T02:16:00.758Z,15.27
2018-05-17T02:18:06.719Z,15.47
2018-05-17T02:20:15.507Z,15.97
2018-05-17T02:22:22.532Z,14.43
2018-05-17T02:24:28.390Z,14.37
2018-05-17T02:26:33.793Z,13.47
2018-05-17T02:28:39.294Z,14.50
2018-05-17T02:30:44.684Z,13.20
2018-05-17T02:32:50.243Z,14.27
2018-05-17T02:34:56.063Z,14.77
2018-05-17T02:37:02.026Z,13.00
2018-05-17T02:39:09.703Z,14.30
2018-05-17T02:41:18.063Z,14.83
2018-05-17T02:43:24.473Z,13.50
2018-05-17T02:45:31.485Z,14.30
2018-05-17T02:47:38.879Z,13.00
2018-05-17T02:49:44.366Z,13.00
2018-05-17T02:51:49.776Z,13.10
2018-05-17T02:53:55.381Z,11.00
2018-05-17T02:56:01.174Z,12.27
2018-05-17T02:58:08.350Z,13.20
2018-05-17T03:00:16.388Z,11.57
2018-05-17T03:02:23.500Z,12.00
2018-05-17T03:04:28.987Z,11.90
2018-05-17T03:06:34.509Z,12.27
2018-05-17T03:08:40.478Z,13.10
2018-05-17T03:10:46.234Z,11.60
2018-05-17T03:12:52.156Z,12.10
2018-05-17T03:14:57.910Z,11.80
2018-05-17T03:17:03.902Z,12.40
2018-05-17T03:19:11.377Z,12.20
2018-05-17T03:21:18.046Z,11.73
2018-05-17T03:23:25.844Z,10.80
2018-05-17T03:25:31.316Z,11.80
2018-05-17T03:27:36.527Z,11.67
2018-05-17T03:29:43.037Z,12.60
2018-05-17T03:31:48.760Z,11.83
2018-05-17T03:33:55.935Z,10.70
2018-05-17T03:36:01.578Z,10.70
2018-05-17T03:38:08.624Z,10.67
2018-05-17T03:40:17.306Z,11.73
2018-05-17T03:42:25.278Z,10.27
2018-05-17T03:44:30.534Z,10.90
2018-05-17T03:46:36.141Z,11.00
2018-05-17T03:48:42.348Z,12.40
2018-05-17T03:50:48.157Z,11.33
2018-05-17T03:52:53.900Z,11.10
2018-05-17T03:54:59.048Z,11.30
2018-05-17T03:57:04.613Z,10.90
2018-05-17T03:59:15.384Z,9.50
2018-05-17T04:01:31.510Z,10.43
2018-05-17T04:05:48.200Z,10.27
2018-05-17T04:07:53.441Z,10.00
2018-05-17T04:09:59.210Z,11.07
2018-05-17T04:12:05.256Z,10.10
2018-05-17T04:14:14.965Z,9.73
2018-05-17T04:16:22.808Z,11.30
2018-05-17T04:18:29.014Z,10.27
2018-05-17T04:20:35.136Z,8.90
2018-05-17T04:22:41.196Z,10.20
2018-05-17T04:24:46.723Z,10.30
2018-05-17T04:26:52.162Z,9.80
2018-05-17T04:28:58.090Z,9.00
2018-05-17T04:31:03.487Z,10.33
2018-05-17T04:33:12.256Z,11.37
2018-05-17T04:35:19.626Z,10.43
2018-05-17T04:37:25.941Z,10.10
2018-05-17T04:39:32.253Z,10.23
2018-05-17T04:41:37.798Z,9.90
2018-05-17T04:43:43.485Z,9.67
2018-05-17T04:45:49.641Z,10.80
2018-05-17T04:47:54.936Z,11.33
2018-05-17T04:50:00.151Z,11.40
2018-05-17T04:52:06.287Z,10.10
2018-05-17T04:54:15.513Z,10.20
2018-05-17T04:56:23.158Z,9.00
2018-05-17T04:58:28.699Z,10.73
2018-05-17T05:00:34.024Z,10.83
2018-05-17T05:02:40.084Z,10.30
2018-05-17T05:04:45.648Z,9.27
2018-05-17T05:06:50.806Z,10.27
2018-05-17T05:08:56.569Z,10.63
2018-05-17T05:11:02.179Z,9.40
2018-05-17T05:13:07.972Z,9.90
2018-05-17T05:15:16.077Z,9.07
2018-05-17T05:17:23.079Z,9.80
2018-05-17T05:19:28.729Z,9.70
2018-05-17T05:21:34.838Z,8.93
2018-05-17T05:23:40.536Z,9.50
2018-05-17T05:25:45.719Z,9.20
2018-05-17T05:27:51.542Z,9.67
2018-05-17T05:29:57.721Z,10.50
2018-05-17T05:32:04.305Z,220.53
2018-05-17T05:34:10.831Z,304.10
2018-05-17T05:36:19.088Z,215.03
2018-05-17T05:38:25.213Z,207.23
2018-05-17T05:40:30.798Z,253.40
2018-05-17T05:42:36.415Z,133.03
2018-05-17T05:44:41.644Z,132.97
2018-05-17T05:46:47.063Z,76.30
2018-05-17T05:48:52.815Z,71.90
2018-05-17T05:50:57.950Z,59.60
2018-05-17T05:53:03.716Z,49.70
2018-05-17T05:55:11.780Z,42.60
2018-05-17T05:57:19.520Z,42.07
2018-05-17T05:59:25.294Z,39.30
2018-05-17T06:01:30.825Z,35.63
2018-05-17T06:03:36.745Z,254.57
2018-05-17T06:05:42.030Z,169.20
2018-05-17T06:07:48.061Z,205.30
2018-05-17T06:09:53.337Z,179.00
2018-05-17T06:11:58.974Z,155.30
2018-05-17T06:14:04.816Z,138.53
2018-05-17T06:16:13.548Z,97.47
2018-05-17T06:18:20.275Z,98.77
2018-05-17T06:20:27.766Z,78.93
2018-05-17T06:22:32.934Z,54.50
2018-05-17T06:24:38.008Z,54.20
2018-05-17T06:26:43.633Z,50.40
2018-05-17T06:28:49.106Z,39.00
2018-05-17T06:30:54.314Z,94.17
2018-05-17T06:33:01.280Z,305.73
2018-05-17T06:35:07.167Z,379.17
2018-05-17T06:37:15.722Z,216.77
2018-05-17T06:39:24.701Z,152.43
2018-05-17T06:41:30.041Z,170.57
2018-05-17T06:43:35.294Z,137.93
2018-05-17T06:45:40.938Z,86.03
2018-05-17T06:47:46.089Z,73.57
2018-05-17T06:49:51.367Z,57.47
2018-05-17T06:51:56.803Z,53.37
2018-05-17T06:54:02.137Z,45.70
2018-05-17T06:56:09.290Z,46.93
2018-05-17T06:58:17.196Z,38.00
2018-05-17T07:00:23.248Z,33.30
2018-05-17T07:02:29.346Z,119.63
2018-05-17T07:04:35.350Z,485.03
2018-05-17T07:06:40.505Z,375.00
2018-05-17T07:08:46.352Z,241.00
2018-05-17T07:10:52.587Z,285.90
2018-05-17T07:13:00.147Z,457.00
2018-05-17T07:15:06.498Z,783.93
2018-05-17T07:17:15.345Z,296.20
2018-05-17T07:19:22.377Z,239.33
2018-05-17T07:21:33.220Z,142.33
2018-05-17T07:23:38.683Z,65.93
2018-05-17T07:25:49.550Z,55.33
2018-05-17T07:27:55.201Z,52.00
2018-05-17T07:30:00.719Z,46.00
2018-05-17T07:32:06.724Z,39.60
2018-05-17T07:34:14.905Z,32.90
2018-05-17T07:36:22.161Z,238.27
2018-05-17T07:38:27.684Z,52.03
2018-05-17T07:40:32.987Z,30.60
2018-05-17T07:42:38.442Z,23.40
2018-05-17T07:44:43.627Z,23.30
2018-05-17T07:46:48.892Z,18.90
2018-05-17T07:48:54.378Z,19.37
2018-05-17T07:50:59.629Z,269.97
2018-05-17T07:53:05.008Z,209.97
2018-05-17T07:55:13.586Z,211.33
2018-05-17T07:57:21.234Z,142.30
2018-05-17T07:59:27.864Z,121.63
2018-05-17T08:01:34.022Z,99.77
2018-05-17T08:03:39.245Z,76.43
2018-05-17T08:05:44.446Z,73.23
2018-05-17T08:07:50.659Z,52.23
2018-05-17T08:09:56.523Z,41.60
2018-05-17T08:12:02.659Z,39.40
2018-05-17T08:14:09.939Z,30.10
2018-05-17T08:16:17.300Z,30.17
2018-05-17T08:18:23.422Z,24.67
2018-05-17T08:20:29.863Z,22.27
2018-05-17T08:22:35.200Z,21.87
2018-05-17T08:24:41.007Z,20.57
2018-05-17T08:26:46.953Z,21.97
2018-05-17T08:28:52.274Z,21.40
2018-05-17T08:30:57.494Z,447.07
2018-05-17T08:33:03.645Z,518.30
2018-05-17T08:35:10.965Z,539.13
2018-05-17T08:37:18.066Z,303.60
2018-05-17T08:39:24.222Z,197.10
2018-05-17T08:41:30.043Z,134.00
2018-05-17T08:43:35.711Z,92.47
2018-05-17T08:45:42.094Z,103.47
2018-05-17T08:47:47.429Z,69.07
2018-05-17T08:49:52.849Z,70.23
2018-05-17T08:51:58.294Z,56.30
2018-05-17T08:54:03.500Z,43.63
2018-05-17T08:56:10.424Z,41.60
2018-05-17T08:58:19.564Z,39.50
2018-05-17T09:00:25.617Z,30.93
2018-05-17T09:02:31.550Z,34.03
2018-05-17T09:04:37.137Z,27.20
2018-05-17T09:06:43.598Z,25.50
2018-05-17T09:08:49.375Z,24.10
2018-05-17T09:10:59.669Z,20.77
2018-05-17T09:13:08.226Z,18.10
2018-05-17T09:15:17.527Z,79.33
2018-05-17T09:17:25.380Z,325.80
2018-05-17T09:19:32.553Z,456.00
2018-05-17T09:21:38.795Z,270.30
2018-05-17T09:23:45.351Z,216.57
2018-05-17T09:25:51.311Z,152.13
2018-05-17T09:27:58.741Z,136.27
2018-05-17T09:30:08.936Z,88.60
2018-05-17T09:32:17.170Z,90.27
2018-05-17T09:34:25.660Z,58.77
2018-05-17T09:36:31.975Z,53.63
2018-05-17T09:38:45.378Z,50.53
2018-05-17T09:40:53.202Z,49.10
2018-05-17T09:43:00.232Z,34.73
2018-05-17T09:48:22.590Z,305.40
2018-05-17T09:50:31.138Z,206.43
2018-05-17T09:52:37.817Z,125.53
2018-05-17T09:54:49.678Z,149.20
2018-05-17T09:56:56.583Z,125.00
2018-05-17T09:59:04.208Z,507.23
2018-05-17T10:01:20.138Z,764.87
2018-05-17T10:03:26.561Z,875.73
2018-05-17T10:05:36.916Z,420.90
2018-05-17T10:07:46.200Z,101.57
2018-05-17T10:09:57.741Z,85.20
2018-05-17T10:12:03.697Z,50.33
2018-05-17T10:15:36.129Z,41.77
2018-05-17T10:17:42.439Z,29.90
2018-05-17T10:19:50.330Z,28.17
2018-05-17T10:21:57.242Z,23.70
2018-05-17T10:24:03.602Z,23.20
2018-05-17T10:26:15.915Z,22.70
2018-05-17T10:28:24.999Z,22.00
2018-05-17T10:30:33.170Z,19.03
2018-05-17T10:32:39.525Z,40.63
2018-05-17T10:34:46.738Z,163.83
2018-05-17T10:36:52.488Z,228.80
2018-05-17T10:38:58.812Z,199.90
2018-05-17T10:41:07.269Z,465.23
2018-05-17T10:43:17.651Z,149.97
2018-05-17T10:45:25.900Z,120.70
2018-05-17T10:47:32.729Z,93.60
2018-05-17T10:49:38.910Z,70.20
2018-05-17T10:51:44.869Z,68.13
2018-05-17T10:53:50.449Z,39.50
2018-05-17T10:55:56.338Z,42.77
2018-05-17T10:58:02.271Z,38.70
2018-05-17T11:00:10.630Z,33.07
2018-05-17T11:02:20.588Z,31.13
2018-05-17T11:04:27.471Z,26.93
2018-05-17T11:06:33.272Z,27.93
2018-05-17T11:08:39.309Z,27.53
2018-05-17T11:10:45.211Z,25.43
2018-05-17T11:12:50.562Z,19.27
2018-05-17T11:14:55.858Z,17.30
2018-05-17T11:17:01.840Z,17.20
2018-05-17T11:19:08.520Z,17.10
2018-05-17T11:21:16.935Z,17.73
2018-05-17T11:23:24.742Z,14.30
2018-05-17T11:25:30.801Z,15.30
2018-05-17T11:27:36.304Z,15.10
2018-05-17T11:29:41.947Z,14.67
2018-05-17T11:31:47.865Z,13.60
2018-05-17T11:33:53.567Z,12.90
2018-05-17T11:36:01.927Z,12.43
2018-05-17T11:38:08.501Z,12.17
2018-05-17T11:40:16.670Z,12.47
2018-05-17T11:42:24.395Z,11.47
2018-05-17T11:44:30.002Z,11.30
2018-05-17T11:46:35.629Z,10.40
2018-05-17T11:48:41.301Z,10.83
2018-05-17T11:50:46.626Z,251.83
2018-05-17T11:52:52.143Z,154.23
2018-05-17T11:54:57.928Z,212.13
2018-05-17T11:57:03.324Z,121.40
2018-05-17T11:59:12.703Z,92.40
2018-05-17T12:01:19.359Z,63.50
2018-05-17T12:03:25.011Z,50.80
2018-05-17T12:05:30.533Z,57.93
2018-05-17T12:07:40.095Z,45.37
2018-05-17T12:09:45.385Z,42.70
2018-05-17T12:11:50.606Z,29.47
2018-05-17T12:13:56.178Z,29.63
2018-05-17T12:16:01.797Z,26.63
2018-05-17T12:18:08.328Z,29.73
2018-05-17T12:20:16.646Z,22.37
2018-05-17T12:22:24.986Z,21.07
2018-05-17T12:24:30.263Z,22.90
2018-05-17T12:26:35.850Z,18.60
2018-05-17T12:28:41.230Z,16.80
2018-05-17T12:30:46.565Z,297.47
2018-05-17T12:32:52.225Z,410.60
2018-05-17T12:34:57.678Z,238.70
2018-05-17T12:37:03.159Z,182.80
2018-05-17T12:39:11.755Z,126.13
2018-05-17T12:41:18.709Z,76.50
2018-05-17T12:43:25.670Z,538.00
2018-05-17T12:45:31.343Z,411.00
2018-05-17T12:47:36.642Z,605.97
2018-05-17T12:49:42.030Z,135.90
2018-05-17T12:51:47.554Z,173.80
2018-05-17T12:53:52.702Z,718.37
2018-05-17T12:55:58.085Z,212.93
2018-05-17T13:00:16.204Z,35.47
2018-05-17T13:04:34.818Z,25.33
2018-05-17T13:06:40.052Z,20.33
2018-05-17T13:08:45.286Z,19.37
2018-05-17T13:10:50.862Z,19.63
2018-05-17T13:12:56.303Z,14.07
2018-05-17T13:15:02.022Z,12.67
2018-05-17T13:17:08.344Z,14.17
2018-05-17T13:19:16.571Z,13.90
2018-05-17T13:21:22.812Z,12.33
2018-05-17T13:23:28.358Z,11.63
2018-05-17T13:25:33.583Z,11.40
2018-05-17T13:27:39.893Z,11.00
2018-05-17T13:29:45.691Z,10.93
2018-05-17T13:31:50.905Z,10.30
2018-05-17T13:33:56.145Z,9.40
2018-05-17T13:36:02.641Z,9.33
2018-05-17T13:38:09.111Z,9.70
2018-05-17T13:40:17.112Z,9.50
2018-05-17T13:42:25.227Z,9.00
2018-05-17T13:44:30.879Z,8.87
2018-05-17T13:46:36.156Z,7.80
2018-05-17T13:48:41.649Z,7.53
2018-05-17T13:50:47.354Z,7.80
2018-05-17T13:52:52.574Z,7.90
2018-05-17T13:54:57.998Z,7.70
2018-05-17T13:57:04.147Z,8.40
2018-05-17T13:59:12.059Z,7.27
2018-05-17T14:01:19.680Z,7.33
2018-05-17T14:03:25.223Z,8.10
2018-05-17T14:05:30.477Z,8.30
2018-05-17T14:07:35.998Z,8.00
2018-05-17T14:09:41.272Z,6.47
2018-05-17T14:11:46.369Z,6.90
2018-05-17T14:13:51.854Z,7.13
2018-05-17T14:15:57.170Z,7.40
2018-05-17T14:18:03.144Z,7.20
2018-05-17T14:20:12.076Z,7.77
2018-05-17T14:22:20.937Z,7.80
2018-05-17T14:24:26.714Z,7.87
2018-05-17T14:26:32.410Z,7.23
2018-05-17T14:28:37.698Z,6.50
2018-05-17T14:30:42.922Z,7.60
2018-05-17T14:32:48.828Z,6.97
2018-05-17T14:34:54.122Z,8.20
2018-05-17T14:37:00.419Z,5.90
2018-05-17T14:39:07.739Z,7.13
2018-05-17T14:41:16.088Z,6.60
2018-05-17T14:43:22.582Z,6.97
2018-05-17T14:45:28.362Z,5.80
2018-05-17T14:47:33.674Z,7.13
2018-05-17T14:49:39.401Z,6.50
2018-05-17T14:51:45.031Z,6.90
2018-05-17T14:53:50.379Z,6.70
2018-05-17T14:55:55.786Z,6.20
2018-05-17T14:58:03.705Z,6.30
2018-05-17T15:00:11.484Z,6.77
2018-05-17T15:02:18.279Z,6.03
2018-05-17T15:04:25.780Z,6.80
2018-05-17T15:06:31.351Z,6.40
2018-05-17T15:08:36.876Z,7.20
2018-05-17T15:10:42.387Z,6.60
2018-05-17T15:12:47.822Z,6.70
2018-05-17T15:14:53.090Z,6.47
2018-05-17T15:16:58.618Z,6.57
2018-05-17T15:19:03.776Z,6.33
2018-05-17T15:21:14.803Z,6.27
2018-05-17T15:23:21.585Z,5.43
2018-05-17T15:25:27.602Z,6.73
2018-05-17T15:27:32.992Z,5.90
2018-05-17T15:29:38.600Z,5.77
2018-05-17T15:31:43.921Z,6.57
2018-05-17T15:33:49.338Z,6.47
2018-05-17T15:35:55.283Z,6.00
2018-05-17T15:38:00.852Z,5.80
2018-05-17T15:40:08.915Z,6.43
2018-05-17T15:42:17.199Z,6.80
2018-05-17T15:44:24.547Z,6.10
2018-05-17T15:46:29.822Z,6.10
2018-05-17T15:48:35.654Z,7.50
2018-05-17T15:50:40.889Z,7.17
2018-05-17T15:52:46.315Z,7.03
2018-05-17T15:54:51.826Z,6.70
2018-05-17T15:56:57.112Z,7.13
2018-05-17T15:59:02.343Z,7.00
2018-05-17T16:01:09.234Z,6.40
2018-05-17T16:03:17.775Z,6.10
2018-05-17T16:05:23.669Z,5.83
2018-05-17T16:07:29.411Z,6.13
2018-05-17T16:09:34.735Z,6.10
2018-05-17T16:11:40.129Z,6.10
2018-05-17T16:13:45.741Z,6.17
2018-05-17T16:15:51.671Z,6.20
2018-05-17T16:17:56.989Z,5.70
2018-05-17T16:20:02.614Z,6.10
2018-05-17T16:22:09.619Z,6.80
2018-05-17T16:24:18.522Z,6.20
2018-05-17T16:26:25.682Z,5.50
2018-05-17T16:28:30.802Z,6.10
2018-05-17T16:30:35.957Z,6.70
2018-05-17T16:32:41.515Z,5.63
2018-05-17T16:34:47.658Z,6.27
2018-05-17T16:36:53.026Z,5.97
2018-05-17T16:38:58.595Z,5.83
2018-05-17T16:41:03.911Z,6.80
2018-05-17T16:43:11.653Z,7.03
2018-05-17T16:45:19.946Z,6.63
2018-05-17T16:47:27.609Z,6.60
2018-05-17T16:49:32.840Z,7.40
2018-05-17T16:51:38.253Z,5.90
2018-05-17T16:53:43.551Z,6.33
2018-05-17T16:55:48.794Z,6.23
2018-05-17T16:57:54.468Z,7.00
2018-05-17T17:00:00.483Z,5.80
2018-05-17T17:02:06.543Z,5.80
2018-05-17T17:04:15.927Z,5.27
2018-05-17T17:06:22.068Z,6.47
2018-05-17T17:08:27.311Z,6.17
2018-05-17T17:10:32.830Z,6.37
2018-05-17T17:12:39.217Z,6.17
2018-05-17T17:14:45.193Z,6.00
2018-05-17T17:16:51.136Z,6.10
2018-05-17T17:18:56.677Z,7.27
2018-05-17T17:21:02.057Z,5.80
2018-05-17T17:23:09.118Z,5.70
2018-05-17T17:25:16.749Z,6.43
2018-05-17T17:27:24.405Z,6.77
2018-05-17T17:29:30.047Z,6.47
2018-05-17T17:31:35.482Z,6.77
2018-05-17T17:33:41.094Z,5.60
2018-05-17T17:35:47.077Z,6.70
2018-05-17T17:37:52.667Z,6.27
2018-05-17T17:39:58.811Z,5.93
2018-05-17T17:42:04.429Z,6.70
2018-05-17T17:44:12.696Z,5.83
2018-05-17T17:46:20.594Z,6.50
2018-05-17T17:48:26.709Z,6.57
2018-05-17T17:50:32.839Z,6.00
2018-05-17T17:52:38.878Z,6.33
2018-05-17T17:54:44.685Z,6.83
2018-05-17T17:56:50.230Z,6.70
2018-05-17T17:58:56.315Z,6.53
2018-05-17T18:01:03.027Z,5.90
2018-05-17T18:03:10.913Z,6.53
2018-05-17T18:05:19.974Z,5.53
2018-05-17T18:07:26.977Z,7.17
2018-05-17T18:09:34.118Z,6.60
2018-05-17T18:11:40.113Z,5.87
2018-05-17T18:13:46.119Z,6.47
2018-05-17T18:15:51.560Z,6.30
2018-05-17T18:17:57.226Z,5.80
2018-05-17T18:20:02.998Z,6.50
2018-05-17T18:22:09.880Z,5.83
2018-05-17T18:24:18.210Z,6.47
2018-05-17T18:26:25.013Z,232.10
2018-05-17T18:28:31.650Z,339.00
2018-05-17T18:30:37.527Z,272.07
2018-05-17T18:32:43.735Z,206.20
2018-05-17T18:34:49.140Z,226.20
2018-05-17T18:36:55.609Z,147.70
2018-05-17T18:39:03.342Z,128.73
2018-05-17T18:41:12.015Z,122.60
2018-05-17T18:43:19.204Z,91.37
2018-05-17T18:45:26.021Z,91.43
2018-05-17T18:47:31.621Z,78.30
2018-05-17T18:49:37.153Z,77.77
2018-05-17T18:51:42.773Z,56.60
2018-05-17T18:53:49.006Z,57.83
2018-05-17T18:55:54.552Z,47.33
2018-05-17T18:58:00.369Z,42.23
2018-05-17T19:00:07.149Z,38.73
2018-05-17T19:02:16.206Z,38.50
2018-05-17T19:04:25.745Z,37.57
2018-05-17T19:06:31.302Z,32.20
2018-05-17T19:08:36.904Z,28.93
2018-05-17T19:10:42.629Z,29.50
2018-05-17T19:12:48.622Z,29.90
2018-05-17T19:15:56.718Z,26.13
2018-05-17T19:18:03.433Z,21.57
2018-05-17T19:20:11.285Z,20.97
2018-05-17T19:22:17.906Z,20.70
2018-05-17T19:24:24.694Z,18.10
2018-05-17T19:26:30.646Z,17.80
2018-05-17T19:28:35.990Z,17.37
2018-05-17T19:30:41.869Z,18.00
2018-05-17T19:32:47.078Z,16.33
2018-05-17T19:34:52.281Z,13.57
2018-05-17T19:36:57.987Z,16.27
2018-05-17T19:39:03.597Z,14.90
2018-05-17T19:41:11.108Z,12.83
2018-05-17T19:43:18.867Z,12.57
2018-05-17T19:45:24.409Z,13.30
2018-05-17T19:47:30.342Z,12.70
2018-05-17T19:49:35.981Z,12.00
2018-05-17T19:51:41.719Z,11.47
2018-05-17T19:53:47.463Z,11.47
2018-05-17T19:55:53.164Z,11.07
2018-05-17T19:57:58.379Z,10.60
2018-05-17T20:00:03.715Z,9.43
2018-05-17T20:02:11.979Z,10.10
2018-05-17T20:04:21.122Z,9.93
2018-05-17T20:06:26.533Z,9.67
2018-05-17T20:08:33.117Z,9.60
2018-05-17T20:10:38.562Z,9.63
2018-05-17T20:12:44.166Z,7.80
2018-05-17T20:14:49.634Z,8.30
2018-05-17T20:16:54.857Z,8.63
2018-05-17T20:19:00.055Z,8.23
2018-05-17T20:21:06.084Z,9.00
2018-05-17T20:23:14.486Z,7.87
2018-05-17T20:25:21.623Z,7.03
2018-05-17T20:27:27.376Z,7.80
2018-05-17T20:29:32.617Z,6.67
2018-05-17T20:31:37.777Z,8.00
2018-05-17T20:33:43.253Z,7.63
2018-05-17T20:35:48.489Z,8.03
2018-05-17T20:37:53.613Z,7.57
2018-05-17T20:39:59.034Z,7.43
2018-05-17T20:42:04.237Z,7.57
2018-05-17T20:44:12.211Z,6.30
2018-05-17T20:46:20.857Z,7.90
2018-05-17T20:48:26.346Z,7.00
2018-05-17T20:50:31.550Z,7.40
2018-05-17T20:52:37.121Z,7.33
2018-05-17T20:54:42.494Z,7.13
2018-05-17T20:56:47.618Z,7.40
2018-05-17T20:58:53.103Z,7.13
2018-05-17T21:00:58.289Z,7.47
2018-05-17T21:03:04.136Z,7.17
2018-05-17T21:05:12.472Z,7.30
2018-05-17T21:07:19.239Z,6.60
2018-05-17T21:09:24.971Z,7.00
2018-05-17T21:11:30.620Z,7.03
2018-05-17T21:13:35.868Z,7.67
2018-05-17T21:15:41.266Z,6.90
2018-05-17T21:17:47.641Z,7.53
2018-05-17T21:19:52.818Z,7.13
2018-05-17T21:21:57.968Z,6.93
2018-05-17T21:24:03.942Z,6.93
2018-05-17T21:26:11.864Z,6.23
2018-05-17T21:28:18.213Z,6.67
2018-05-17T21:30:24.091Z,7.20
2018-05-17T21:32:30.711Z,6.67
2018-05-17T21:34:36.374Z,7.30
2018-05-17T21:36:41.867Z,6.57
2018-05-17T21:38:47.742Z,6.60
2018-05-17T21:40:53.055Z,6.70
2018-05-17T21:42:58.726Z,6.83
2018-05-17T21:45:04.121Z,7.40
2018-05-17T21:47:12.403Z,7.50
2018-05-17T21:49:22.604Z,6.47
2018-05-17T21:51:28.077Z,7.00
2018-05-17T21:53:34.164Z,7.57
2018-05-17T21:55:39.649Z,6.97
2018-05-17T21:57:46.058Z,13.90
2018-05-17T21:59:51.825Z,113.13
2018-05-17T22:01:57.341Z,200.10
2018-05-17T22:04:04.376Z,291.50
2018-05-17T22:06:13.840Z,194.47
2018-05-17T22:08:21.616Z,149.70
2018-05-17T22:10:27.422Z,116.97
2018-05-17T22:12:32.796Z,120.50
2018-05-17T22:14:38.452Z,230.63
2018-05-17T22:16:44.438Z,349.90
2018-05-17T22:18:49.758Z,287.63
2018-05-17T22:20:55.315Z,240.00
2018-05-17T22:23:01.055Z,185.77
2018-05-17T22:25:07.055Z,168.97
2018-05-17T22:27:15.825Z,144.27
2018-05-17T22:29:23.953Z,141.90
2018-05-17T22:31:29.165Z,126.40
2018-05-17T22:33:34.573Z,100.27
2018-05-17T22:35:40.349Z,77.43
2018-05-17T22:37:46.671Z,86.17
2018-05-17T22:39:52.391Z,85.67
2018-05-17T22:41:57.553Z,73.73
2018-05-17T22:44:02.699Z,73.93
2018-05-17T22:46:10.992Z,69.50
2018-05-17T22:48:18.541Z,55.57
2018-05-17T22:50:25.437Z,54.13
2018-05-17T22:52:31.290Z,48.83
2018-05-17T22:54:36.477Z,44.70
2018-05-17T22:56:50.911Z,45.83
2018-05-17T22:58:57.724Z,38.83
2018-05-17T23:01:03.743Z,33.90
2018-05-17T23:03:11.839Z,39.63
2018-05-17T23:05:18.724Z,32.40
2018-05-17T23:07:26.312Z,29.13
2018-05-17T23:09:31.442Z,29.03
2018-05-17T23:11:37.730Z,22.30
2018-05-17T23:13:43.616Z,24.83
2018-05-17T23:15:48.810Z,22.50
2018-05-17T23:17:54.949Z,21.60
2018-05-17T23:20:00.794Z,18.07
2018-05-17T23:22:07.464Z,19.70
2018-05-17T23:24:17.296Z,19.93
2018-05-17T23:26:24.564Z,17.17
2018-05-17T23:28:30.226Z,17.43
2018-05-17T23:30:36.513Z,16.83
2018-05-17T23:32:42.306Z,14.80
2018-05-17T23:34:47.497Z,14.83
2018-05-17T23:36:53.792Z,14.57
2018-05-17T23:38:59.787Z,12.93
2018-05-17T23:41:15.913Z,13.80
2018-05-17T23:43:23.564Z,13.30
2018-05-17T23:45:29.253Z,13.50
2018-05-17T23:47:35.133Z,12.57
2018-05-17T23:49:41.346Z,11.73
2018-05-17T23:51:47.747Z,11.50
2018-05-17T23:53:52.942Z,11.53
2018-05-17T23:55:59.107Z,11.97
2018-05-17T23:58:04.921Z,10.93
